Time;durP1;ratioP1;P1;durP2;ratioP2;P2;SDS_P1;SDS_P2;PMS_P1;PMS_P2;Temp;Humidity;BMP_temperature;BMP_pressure;BME280_temperature;BME280_humidity;BME280_pressure;Samples;Min_cycle;Max_cycle;Signal;HPM_P1;HPM_P2
2022/11/09 00:01:20;;;;;;;686.80;645.00;;;10.70;20.60;;;;;;5058429;28;20428;-70
2022/11/09 00:03:47;;;;;;;625.00;588.53;;;10.70;20.70;;;;;;5059354;28;20413;-70
2022/11/09 00:06:13;;;;;;;624.67;587.33;;;10.80;20.70;;;;;;5059409;28;20179;-71
2022/11/09 00:08:39;;;;;;;596.00;560.20;;;10.80;20.80;;;;;;5058285;28;20470;-70
2022/11/09 00:11:08;;;;;;;592.80;558.23;;;10.80;21.40;;;;;;5058417;28;20814;-70
2022/11/09 00:13:38;;;;;;;634.50;596.73;;;10.80;21.00;;;;;;5059736;28;20436;-70
2022/11/09 00:16:08;;;;;;;608.40;573.20;;;10.80;20.90;;;;;;5059452;28;20412;-71
2022/11/09 00:18:35;;;;;;;636.80;599.33;;;10.80;20.80;;;;;;5057959;28;20424;-70
2022/11/09 00:21:08;;;;;;;636.47;598.00;;;10.80;21.00;;;;;;5058872;28;20413;-70
2022/11/09 00:23:35;;;;;;;434.40;406.47;;;10.80;20.90;;;;;;5058404;28;20456;-70
2022/11/09 00:26:07;;;;;;;537.00;503.33;;;10.70;21.30;;;;;;5059873;28;20443;-71
2022/11/09 00:28:33;;;;;;;659.57;621.53;;;10.80;21.40;;;;;;5059444;28;20435;-70
2022/11/09 00:31:00;;;;;;;631.07;593.03;;;10.80;21.60;;;;;;5059268;28;20413;-70
2022/11/09 00:33:25;;;;;;;625.47;588.30;;;10.70;21.70;;;;;;5059359;28;20514;-70
2022/11/09 00:35:51;;;;;;;596.40;562.73;;;10.70;21.80;;;;;;5059729;28;20409;-71
2022/11/09 00:38:17;;;;;;;627.07;591.07;;;10.70;22.00;;;;;;5057620;28;20773;-70
2022/11/09 00:40:42;;;;;;;619.23;583.97;;;10.70;21.80;;;;;;5059209;28;20661;-70
2022/11/09 00:43:08;;;;;;;511.33;478.87;;;10.60;21.90;;;;;;5058996;28;20693;-70
2022/11/09 00:45:34;;;;;;;607.30;570.83;;;10.60;22.10;;;;;;5057913;28;20205;-69
2022/11/09 00:47:59;;;;;;;282.27;263.40;;;10.60;22.60;;;;;;5059258;28;20417;-71
2022/11/09 00:50:25;;;;;;;565.10;533.27;;;10.60;22.70;;;;;;5058419;28;20182;-72
2022/11/09 00:52:50;;;;;;;675.97;636.10;;;10.60;22.80;;;;;;5059492;28;20260;-70
2022/11/09 00:55:16;;;;;;;582.70;548.53;;;10.50;22.90;;;;;;5058093;28;20218;-70
2022/11/09 00:57:41;;;;;;;620.87;585.40;;;10.50;22.90;;;;;;5058604;28;20642;-70
2022/11/09 01:00:07;;;;;;;643.30;607.70;;;10.40;22.90;;;;;;5057679;28;20182;-70
2022/11/09 01:02:33;;;;;;;438.10;410.73;;;10.40;22.90;;;;;;5058478;28;20566;-70
2022/11/09 01:04:59;;;;;;;581.13;546.77;;;10.50;22.90;;;;;;5059307;28;20425;-70
2022/11/09 01:07:25;;;;;;;485.93;459.53;;;10.50;22.90;;;;;;5059119;28;20593;-70
2022/11/09 01:09:50;;;;;;;580.77;549.30;;;10.50;22.90;;;;;;5059329;28;20421;-70
2022/11/09 01:12:16;;;;;;;641.77;605.50;;;10.50;22.90;;;;;;5057201;28;20696;-70
2022/11/09 01:14:41;;;;;;;558.67;527.43;;;10.50;22.90;;;;;;5058392;28;20240;-70
2022/11/09 01:17:07;;;;;;;607.20;572.70;;;10.50;22.90;;;;;;5057283;28;20187;-70
2022/11/09 01:19:32;;;;;;;536.80;507.07;;;10.50;22.90;;;;;;5058729;28;20178;-69
2022/11/09 01:21:58;;;;;;;534.60;501.97;;;10.50;23.50;;;;;;5058147;28;20220;-71
2022/11/09 01:24:23;;;;;;;625.30;589.20;;;10.60;23.00;;;;;;5058453;28;20183;-70
2022/11/09 01:26:49;;;;;;;630.20;594.47;;;10.50;23.40;;;;;;5057411;28;20262;-70
2022/11/09 01:29:14;;;;;;;623.17;586.37;;;10.50;23.50;;;;;;5057683;28;20209;-70
2022/11/09 01:31:40;;;;;;;399.07;374.27;;;10.50;23.60;;;;;;5057659;28;20207;-71
2022/11/09 01:34:06;;;;;;;607.70;572.87;;;10.50;23.60;;;;;;5057848;28;20198;-70
2022/11/09 01:36:31;;;;;;;643.07;606.37;;;10.40;24.00;;;;;;5057992;28;20179;-71
2022/11/09 01:38:57;;;;;;;609.83;574.50;;;10.40;23.80;;;;;;5056511;28;20630;-71
2022/11/09 01:41:24;;;;;;;259.27;241.37;;;10.50;23.80;;;;;;5058568;28;20170;-70
2022/11/09 01:44:03;;;;;;;535.67;506.73;;;10.50;23.70;;;;;;5057820;28;20269;-71
2022/11/09 01:46:51;;;;;;;555.80;524.77;;;10.40;24.10;;;;;;5057965;28;20425;-70
2022/11/09 01:49:33;;;;;;;256.13;236.93;;;10.40;24.10;;;;;;5057764;28;20490;-71
2022/11/09 01:52:05;;;;;;;475.00;448.87;;;10.40;24.20;;;;;;5058111;28;20433;-71
2022/11/09 01:54:37;;;;;;;614.67;578.97;;;10.40;24.00;;;;;;5057659;28;20453;-71
2022/11/09 01:57:09;;;;;;;628.07;593.63;;;10.30;24.10;;;;;;5057839;28;20410;-71
2022/11/09 01:59:39;;;;;;;700.10;658.33;;;10.30;24.10;;;;;;5057808;28;20422;-71
2022/11/09 02:02:05;;;;;;;669.53;630.10;;;10.40;24.40;;;;;;5056922;28;20863;-71
2022/11/09 02:04:48;;;;;;;455.37;428.17;;;10.40;24.50;;;;;;5057285;28;20436;-71
2022/11/09 02:07:14;;;;;;;637.57;601.10;;;10.40;24.30;;;;;;5057056;28;20186;-70
2022/11/09 02:10:02;;;;;;;417.93;392.40;;;10.40;24.70;;;;;;5057872;28;20443;-71
2022/11/09 02:12:30;;;;;;;458.33;429.40;;;10.40;24.80;;;;;;5055826;28;20211;-71
2022/11/09 02:14:56;;;;;;;399.93;374.67;;;10.50;24.60;;;;;;5057267;28;20531;-71
2022/11/09 02:17:22;;;;;;;348.03;325.13;;;10.40;24.60;;;;;;5057379;28;20945;-71
2022/11/09 02:19:47;;;;;;;353.27;330.03;;;10.50;25.30;;;;;;5056237;28;20425;-71
2022/11/09 02:22:14;;;;;;;405.37;381.47;;;10.50;24.50;;;;;;5057015;28;20468;-71
2022/11/09 02:24:39;;;;;;;433.07;405.87;;;10.50;24.00;;;;;;5057940;28;20208;-71
2022/11/09 02:27:06;;;;;;;564.30;529.20;;;10.40;24.10;;;;;;5058013;28;20878;-71
2022/11/09 02:29:36;;;;;;;378.27;354.80;;;10.30;24.10;;;;;;5056718;28;20178;-70
2022/11/09 02:32:10;;;;;;;429.60;401.87;;;10.40;24.20;;;;;;5057676;28;20435;-71
2022/11/09 02:34:35;;;;;;;343.23;320.57;;;10.30;24.50;;;;;;5057875;28;20467;-70
2022/11/09 02:37:01;;;;;;;361.23;340.87;;;10.30;24.20;;;;;;5058137;28;20435;-71
2022/11/09 02:39:27;;;;;;;700.27;656.10;;;10.40;23.90;;;;;;5057077;28;20265;-70
2022/11/09 02:42:01;;;;;;;542.33;508.50;;;10.40;24.00;;;;;;5055973;28;20302;-70
2022/11/09 02:44:28;;;;;;;523.30;490.67;;;10.40;23.80;;;;;;5056578;28;20439;-71
2022/11/09 02:46:54;;;;;;;538.33;504.07;;;10.30;23.60;;;;;;5055854;28;20432;-71
2022/11/09 02:49:20;;;;;;;578.67;542.90;;;10.30;23.50;;;;;;5057748;28;20428;-71
2022/11/09 02:51:45;;;;;;;478.30;446.37;;;10.30;23.30;;;;;;5056638;28;20226;-71
2022/11/09 02:54:11;;;;;;;412.10;385.03;;;10.40;23.20;;;;;;5057829;28;20557;-70
2022/11/09 02:56:37;;;;;;;744.67;697.10;;;10.40;23.50;;;;;;5056977;28;20248;-70
2022/11/09 02:59:02;;;;;;;630.37;587.93;;;10.40;23.30;;;;;;5055594;28;20178;-71
2022/11/09 03:01:28;;;;;;;567.73;531.80;;;10.50;22.90;;;;;;5056836;28;20175;-70
2022/11/09 03:03:54;;;;;;;323.10;300.73;;;10.50;22.90;;;;;;5055924;28;20483;-71
2022/11/09 03:06:20;;;;;;;367.90;343.83;;;10.50;22.90;;;;;;5057270;28;20417;-71
2022/11/09 03:08:45;;;;;;;304.83;283.73;;;10.50;22.90;;;;;;5057701;28;20179;-71
2022/11/09 03:11:11;;;;;;;479.87;449.33;;;10.40;23.10;;;;;;5055317;28;20235;-71
2022/11/09 03:13:36;;;;;;;256.33;237.67;;;10.40;23.10;;;;;;5055479;28;20202;-71
2022/11/09 03:16:07;;;;;;;425.10;395.43;;;10.40;22.90;;;;;;5055963;28;20649;-71
2022/11/09 03:18:32;;;;;;;383.60;359.20;;;10.40;22.90;;;;;;5055959;28;20178;-71
2022/11/09 03:21:03;;;;;;;184.73;169.87;;;10.40;22.90;;;;;;5057545;28;20895;-70
2022/11/09 03:23:29;;;;;;;590.70;554.10;;;10.40;22.90;;;;;;5056763;28;20206;-71
2022/11/09 03:25:54;;;;;;;601.97;564.27;;;10.40;22.90;;;;;;5056819;28;20486;-71
2022/11/09 03:28:20;;;;;;;574.87;538.40;;;10.40;23.10;;;;;;5056135;28;20451;-71
2022/11/09 03:30:46;;;;;;;642.07;601.67;;;10.50;22.90;;;;;;5056611;28;20681;-71
2022/11/09 03:33:13;;;;;;;197.40;181.63;;;10.60;23.00;;;;;;5056293;28;20194;-71
2022/11/09 03:35:39;;;;;;;656.67;616.00;;;10.60;23.00;;;;;;5056556;28;20464;-71
2022/11/09 03:38:04;;;;;;;631.63;590.43;;;10.70;23.10;;;;;;5055806;28;20423;-71
2022/11/09 03:40:30;;;;;;;582.10;545.87;;;10.80;23.10;;;;;;5054588;28;20422;-70
2022/11/09 03:42:56;;;;;;;552.33;517.10;;;10.80;23.10;;;;;;5054320;28;20445;-70
2022/11/09 03:45:22;;;;;;;271.13;251.97;;;10.90;22.90;;;;;;5055657;28;20413;-71
2022/11/09 03:47:48;;;;;;;576.70;539.87;;;10.90;23.20;;;;;;5056267;28;20413;-71
2022/11/09 03:50:15;;;;;;;532.30;499.20;;;10.90;24.00;;;;;;5055363;28;20646;-71
2022/11/09 03:52:45;;;;;;;216.53;200.17;;;10.90;24.00;;;;;;5053899;28;20444;-71
2022/11/09 03:55:11;;;;;;;365.63;340.63;;;10.90;24.90;;;;;;5054930;28;20471;-70
2022/11/09 03:57:36;;;;;;;267.20;249.50;;;10.80;25.60;;;;;;5056855;28;20942;-70
2022/11/09 04:00:04;;;;;;;223.53;206.67;;;10.70;26.90;;;;;;5056454;28;20445;-70
2022/11/09 04:02:29;;;;;;;193.17;178.10;;;10.70;27.20;;;;;;5055148;28;20226;-70
2022/11/09 04:04:55;;;;;;;407.03;380.27;;;10.70;28.20;;;;;;5057124;28;20417;-71
2022/11/09 04:07:20;;;;;;;639.90;599.00;;;10.60;28.90;;;;;;5057904;28;20207;-71
2022/11/09 04:09:46;;;;;;;680.97;641.10;;;10.60;30.30;;;;;;5057766;28;20692;-70
2022/11/09 04:12:12;;;;;;;752.27;706.10;;;10.60;30.60;;;;;;5056527;28;20207;-71
2022/11/09 04:14:37;;;;;;;711.40;665.97;;;10.70;30.70;;;;;;5056374;28;20210;-71
2022/11/09 04:17:03;;;;;;;716.60;672.80;;;10.80;30.00;;;;;;5055973;28;20179;-72
2022/11/09 04:19:28;;;;;;;444.97;415.03;;;10.90;29.90;;;;;;5057627;28;20209;-71
2022/11/09 04:21:54;;;;;;;621.50;579.57;;;10.80;30.40;;;;;;5056233;28;20217;-70
2022/11/09 04:24:19;;;;;;;623.83;583.80;;;10.80;31.70;;;;;;5056020;28;20186;-70
2022/11/09 04:26:46;;;;;;;735.80;688.07;;;10.80;31.80;;;;;;5056021;28;20595;-71
2022/11/09 04:29:12;;;;;;;621.87;579.83;;;10.90;32.50;;;;;;5057237;28;20170;-71
2022/11/09 04:31:37;;;;;;;431.83;403.43;;;11.00;31.80;;;;;;5059722;28;20441;-70
2022/11/09 04:34:03;;;;;;;502.40;468.90;;;11.00;31.80;;;;;;5059822;28;20233;-71
2022/11/09 04:36:28;;;;;;;222.87;205.47;;;11.00;31.80;;;;;;5060679;28;20174;-71
2022/11/09 04:38:54;;;;;;;211.33;194.57;;;10.90;32.10;;;;;;5058422;28;20174;-71
2022/11/09 04:41:20;;;;;;;276.93;257.63;;;11.00;31.80;;;;;;5060478;28;20171;-70
2022/11/09 04:43:45;;;;;;;309.63;288.17;;;11.00;31.90;;;;;;5060332;28;20195;-70
2022/11/09 04:46:11;;;;;;;552.63;518.07;;;10.90;32.90;;;;;;5060523;28;20179;-71
2022/11/09 04:48:36;;;;;;;795.90;743.93;;;10.90;32.90;;;;;;5060899;28;20175;-71
2022/11/09 04:51:09;;;;;;;663.57;619.07;;;10.90;33.70;;;;;;5060328;28;20696;-71
2022/11/09 04:53:35;;;;;;;423.13;393.73;;;10.90;34.20;;;;;;5059141;28;20250;-70
2022/11/09 04:56:03;;;;;;;476.03;442.93;;;10.90;33.80;;;;;;5061156;28;20412;-70
2022/11/09 04:58:29;;;;;;;669.50;625.00;;;10.90;34.20;;;;;;5060988;28;20431;-70
2022/11/09 05:01:00;;;;;;;164.13;149.73;;;10.90;35.00;;;;;;5060505;28;20937;-70
2022/11/09 05:03:26;;;;;;;530.27;494.97;;;10.90;35.30;;;;;;5060729;28;20194;-71
2022/11/09 05:05:51;;;;;;;332.80;309.80;;;10.90;35.60;;;;;;5060553;28;20436;-71
2022/11/09 05:08:17;;;;;;;559.47;520.33;;;10.90;35.90;;;;;;5061206;28;20193;-71
2022/11/09 05:10:42;;;;;;;213.60;198.23;;;10.80;36.20;;;;;;5060491;28;20204;-70
2022/11/09 05:13:10;;;;;;;137.07;125.00;;;10.80;37.10;;;;;;5061744;28;20648;-71
2022/11/09 05:15:37;;;;;;;553.63;517.30;;;10.80;37.90;;;;;;5062967;28;20206;-70
2022/11/09 05:18:03;;;;;;;377.20;350.57;;;10.80;38.30;;;;;;5061708;28;20412;-70
2022/11/09 05:20:29;;;;;;;397.53;371.03;;;10.80;39.10;;;;;;5062209;28;21028;-71
2022/11/09 05:25:41;;;;;;;735.27;684.60;;;10.80;40.90;;;;;;5054101;28;20460;-71
2022/11/09 05:28:07;;;;;;;238.30;220.87;;;10.90;40.90;;;;;;5052487;28;20915;-72
2022/11/09 05:30:32;;;;;;;383.30;356.97;;;10.90;40.30;;;;;;5053755;28;20505;-72
2022/11/09 05:32:58;;;;;;;566.13;528.33;;;10.80;40.70;;;;;;5053319;28;20483;-73
2022/11/09 05:35:24;;;;;;;299.83;278.43;;;10.70;41.20;;;;;;5053830;28;20548;-72
2022/11/09 05:37:50;;;;;;;493.63;460.83;;;10.70;41.90;;;;;;5053662;28;20183;-72
2022/11/09 05:40:17;;;;;;;562.67;523.57;;;10.70;42.80;;;;;;5052673;28;20546;-71
2022/11/09 05:42:43;;;;;;;514.77;480.90;;;10.70;43.60;;;;;;5052363;28;20425;-72
2022/11/09 05:45:11;;;;;;;508.20;474.43;;;10.70;44.40;;;;;;5053479;28;20524;-73
2022/11/09 05:47:38;;;;;;;442.80;414.20;;;10.80;44.50;;;;;;5053389;28;20176;-72
2022/11/09 05:50:05;;;;;;;389.63;363.50;;;10.80;44.20;;;;;;5053280;28;20475;-72
2022/11/09 05:52:30;;;;;;;320.50;298.70;;;10.90;44.30;;;;;;5052855;28;20519;-72
2022/11/09 05:54:56;;;;;;;298.60;279.07;;;11.00;44.20;;;;;;5051713;28;20471;-74
2022/11/09 05:57:21;;;;;;;248.60;230.57;;;11.00;42.90;;;;;;5053088;28;20175;-70
2022/11/09 05:59:47;;;;;;;482.53;453.47;;;11.00;42.90;;;;;;5051738;28;20171;-73
2022/11/09 06:02:13;;;;;;;514.43;481.90;;;11.10;42.30;;;;;;5052493;28;20201;-73
2022/11/09 06:04:38;;;;;;;356.07;331.90;;;11.10;42.30;;;;;;5052945;28;20175;-72
2022/11/09 06:07:04;;;;;;;614.97;574.90;;;11.10;42.30;;;;;;5052902;28;20262;-71
2022/11/09 06:09:29;;;;;;;464.53;433.27;;;11.10;42.30;;;;;;5052950;28;20254;-72
2022/11/09 06:11:55;;;;;;;544.30;509.43;;;11.20;42.40;;;;;;5051188;28;20678;-72
2022/11/09 06:14:20;;;;;;;430.70;401.93;;;11.20;41.50;;;;;;5051368;28;20206;-73
2022/11/09 06:16:46;;;;;;;524.77;490.30;;;11.30;40.90;;;;;;5051331;28;20182;-71
2022/11/09 06:19:14;;;;;;;639.63;597.20;;;11.30;40.10;;;;;;5052573;28;20651;-73
2022/11/09 06:21:40;;;;;;;226.77;211.00;;;11.40;39.70;;;;;;5052588;28;20724;-73
2022/11/09 06:24:06;;;;;;;275.67;255.53;;;11.40;39.80;;;;;;5052384;28;20440;-74
2022/11/09 06:26:32;;;;;;;284.83;265.43;;;11.50;38.80;;;;;;5051360;28;20178;-74
2022/11/09 06:28:57;;;;;;;285.10;263.33;;;11.60;38.00;;;;;;5051474;28;20425;-73
2022/11/09 06:31:23;;;;;;;274.53;254.77;;;11.60;37.90;;;;;;5052533;28;20180;-73
2022/11/09 06:33:48;;;;;;;232.23;215.83;;;11.70;37.70;;;;;;5050875;28;20643;-71
2022/11/09 06:36:14;;;;;;;402.73;374.10;;;11.60;37.60;;;;;;5052355;28;20184;-73
2022/11/09 06:38:40;;;;;;;443.47;413.20;;;11.70;37.70;;;;;;5052501;28;20534;-73
2022/11/09 06:41:05;;;;;;;481.37;449.67;;;11.70;37.70;;;;;;5051156;28;20178;-73
2022/11/09 06:43:31;;;;;;;399.83;373.83;;;11.70;36.50;;;;;;5050724;28;20425;-73
2022/11/09 06:45:56;;;;;;;500.03;465.07;;;11.80;36.00;;;;;;5052257;28;20201;-73
2022/11/09 06:48:23;;;;;;;394.20;367.77;;;11.90;35.70;;;;;;5052419;28;20341;-74
2022/11/09 06:50:49;;;;;;;411.43;385.20;;;12.00;35.90;;;;;;5052176;28;20260;-73
2022/11/09 06:53:15;;;;;;;216.60;200.67;;;12.10;35.70;;;;;;5051753;28;21054;-73
2022/11/09 06:55:41;;;;;;;349.67;325.87;;;12.20;34.90;;;;;;5050782;28;20219;-73
2022/11/09 06:58:10;;;;;;;768.87;719.07;;;12.20;34.70;;;;;;5052019;28;20806;-72
2022/11/09 07:00:36;;;;;;;417.80;387.47;;;12.20;34.50;;;;;;5050670;28;20174;-73
2022/11/09 07:03:02;;;;;;;249.77;231.57;;;12.20;34.50;;;;;;5051455;28;20439;-74
2022/11/09 07:05:28;;;;;;;572.60;533.20;;;12.20;35.00;;;;;;5051955;28;20483;-73
2022/11/09 07:07:53;;;;;;;564.07;526.73;;;12.20;35.10;;;;;;5051959;28;20515;-73
2022/11/09 07:10:19;;;;;;;378.83;352.67;;;12.20;34.70;;;;;;5050553;28;20194;-74
2022/11/09 07:12:45;;;;;;;715.90;665.90;;;12.20;35.60;;;;;;5051599;28;20198;-72
2022/11/09 07:15:11;;;;;;;521.77;487.17;;;12.30;35.20;;;;;;5051758;28;20288;-73
2022/11/09 07:17:38;;;;;;;821.73;766.60;;;12.30;35.40;;;;;;5051943;28;20516;-73
2022/11/09 07:20:05;;;;;;;837.50;782.10;;;12.50;34.50;;;;;;5051802;28;20489;-73
2022/11/09 07:22:33;;;;;;;667.20;620.70;;;12.60;34.60;;;;;;5050095;28;20467;-73
2022/11/09 07:24:59;;;;;;;665.80;617.93;;;12.70;33.80;;;;;;5051784;28;20446;-73
2022/11/09 07:27:25;;;;;;;804.87;748.20;;;12.70;33.30;;;;;;5050482;28;20882;-73
2022/11/09 07:29:50;;;;;;;724.27;675.07;;;12.70;33.30;;;;;;5051599;28;20710;-74
2022/11/09 07:32:16;;;;;;;646.53;601.70;;;12.80;33.10;;;;;;5050113;28;20544;-72
2022/11/09 07:34:46;;;;;;;794.87;738.80;;;12.90;32.70;;;;;;5051610;28;20241;-74
2022/11/09 07:37:12;;;;;;;899.40;838.73;;;12.90;33.50;;;;;;5050263;28;20194;-74
2022/11/09 07:39:37;;;;;;;701.07;651.37;;;12.80;34.10;;;;;;5050457;28;20932;-73
2022/11/09 07:42:03;;;;;;;678.60;630.80;;;12.80;33.40;;;;;;5050079;28;20204;-73
2022/11/09 07:44:28;;;;;;;542.40;504.30;;;12.70;33.30;;;;;;5051628;28;20193;-72
2022/11/09 07:46:54;;;;;;;847.17;787.27;;;12.80;33.40;;;;;;5051589;28;20637;-72
2022/11/09 07:49:19;;;;;;;528.60;489.30;;;12.80;33.30;;;;;;5051645;28;20183;-73
2022/11/09 07:51:45;;;;;;;575.80;536.47;;;12.20;33.30;;;;;;5051263;28;20190;-71
2022/11/09 07:54:11;;;;;;;375.33;349.90;;;11.90;35.00;;;;;;5051474;28;20207;-72
2022/11/09 07:56:37;;;;;;;601.23;559.70;;;11.80;35.90;;;;;;5051382;28;20197;-73
2022/11/09 07:59:03;;;;;;;175.10;160.70;;;11.60;36.20;;;;;;5051511;28;20643;-73
2022/11/09 08:01:29;;;;;;;492.23;460.77;;;11.50;37.50;;;;;;5051299;28;20421;-73
2022/11/09 08:03:54;;;;;;;800.70;747.43;;;11.50;37.50;;;;;;5051256;28;20459;-74
2022/11/09 08:06:21;;;;;;;809.77;755.37;;;11.60;38.00;;;;;;5055493;28;20176;-73
2022/11/09 08:08:48;;;;;;;310.13;288.67;;;11.40;37.50;;;;;;5055400;28;20603;-74
2022/11/09 08:11:14;;;;;;;424.10;394.07;;;11.40;39.10;;;;;;5055218;28;20783;-74
2022/11/09 08:13:40;;;;;;;274.40;254.20;;;11.30;39.60;;;;;;5054953;28;20445;-73
2022/11/09 08:16:05;;;;;;;289.70;268.20;;;11.30;40.60;;;;;;5055516;28;20417;-73
2022/11/09 08:18:31;;;;;;;426.60;399.03;;;11.30;40.10;;;;;;5054967;28;20182;-72
2022/11/09 08:20:59;;;;;;;559.30;522.10;;;11.20;40.60;;;;;;5055279;28;20631;-74
2022/11/09 08:23:25;;;;;;;467.93;437.93;;;11.20;41.30;;;;;;5054732;28;20642;-72
2022/11/09 08:25:51;;;;;;;456.43;426.30;;;11.10;42.30;;;;;;5055462;28;20421;-74
2022/11/09 08:28:16;;;;;;;507.93;473.33;;;11.10;43.70;;;;;;5053857;28;20197;-74
2022/11/09 08:30:43;;;;;;;340.07;317.13;;;11.00;44.50;;;;;;5055186;28;20580;-74
2022/11/09 08:33:10;;;;;;;276.13;256.43;;;11.00;45.40;;;;;;5055144;28;20207;-74
2022/11/09 08:35:35;;;;;;;439.43;410.47;;;11.00;46.40;;;;;;5056130;28;20554;-73
2022/11/09 08:38:03;;;;;;;539.93;502.37;;;11.10;46.20;;;;;;5054827;28;20846;-74
2022/11/09 08:40:30;;;;;;;414.47;386.03;;;11.00;45.90;;;;;;5053658;28;20525;-74
2022/11/09 08:43:03;;;;;;;549.73;512.40;;;11.00;46.80;;;;;;5054373;28;20540;-73
2022/11/09 08:45:31;;;;;;;453.57;424.13;;;11.00;47.30;;;;;;5054704;28;20424;-74
2022/11/09 08:47:58;;;;;;;335.63;313.43;;;11.00;47.30;;;;;;5057222;28;20417;-73
2022/11/09 08:50:25;;;;;;;451.43;423.00;;;11.00;47.30;;;;;;5054542;28;20922;-73
2022/11/09 08:52:50;;;;;;;338.37;316.97;;;11.00;47.50;;;;;;5054167;28;20789;-74
2022/11/09 08:55:16;;;;;;;530.50;499.63;;;11.10;48.20;;;;;;5054346;28;20468;-74
2022/11/09 08:57:41;;;;;;;529.33;496.77;;;11.10;47.40;;;;;;5054379;28;20218;-74
2022/11/09 09:00:07;;;;;;;378.23;353.60;;;11.20;48.10;;;;;;5054435;28;20172;-74
2022/11/09 09:02:33;;;;;;;745.10;698.27;;;11.40;47.60;;;;;;5053991;28;20194;-74
2022/11/09 09:04:58;;;;;;;330.03;308.40;;;11.40;46.20;;;;;;5054460;28;20449;-73
2022/11/09 09:07:24;;;;;;;662.03;620.17;;;11.40;45.50;;;;;;5054256;28;20723;-74
2022/11/09 09:09:50;;;;;;;441.03;410.63;;;11.50;45.60;;;;;;5054158;28;20664;-72
2022/11/09 09:12:15;;;;;;;347.33;324.50;;;11.60;44.60;;;;;;5053899;28;20731;-74
2022/11/09 09:14:41;;;;;;;440.73;412.13;;;11.60;45.60;;;;;;5054141;28;20681;-73
2022/11/09 09:17:06;;;;;;;426.93;399.73;;;11.80;44.40;;;;;;5052826;28;20580;-74
2022/11/09 09:19:32;;;;;;;433.10;403.00;;;11.90;43.00;;;;;;5054121;28;20274;-71
2022/11/09 09:21:58;;;;;;;234.33;217.67;;;12.00;41.10;;;;;;5053485;28;20664;-71
2022/11/09 09:24:24;;;;;;;294.33;274.27;;;12.20;41.40;;;;;;5053958;28;20260;-71
2022/11/09 09:26:49;;;;;;;432.60;404.23;;;12.20;40.50;;;;;;5053931;28;20459;-72
2022/11/09 09:29:15;;;;;;;288.87;268.53;;;12.40;39.10;;;;;;5053780;28;20176;-71
2022/11/09 09:31:41;;;;;;;459.13;427.40;;;12.40;38.60;;;;;;5053760;28;20252;-72
2022/11/09 09:34:07;;;;;;;638.93;594.73;;;12.50;38.40;;;;;;5053667;28;20821;-73
2022/11/09 09:36:34;;;;;;;577.57;533.17;;;12.60;38.50;;;;;;5053923;28;20607;-73
2022/11/09 09:39:00;;;;;;;349.13;325.13;;;12.60;37.60;;;;;;5053611;28;20818;-73
2022/11/09 09:41:51;;;;;;;292.83;270.80;;;12.60;37.80;;;;;;5053844;28;20428;-71
2022/11/09 09:44:58;;;;;;;612.67;570.80;;;12.80;37.20;;;;;;5052320;28;20181;-73
2022/11/09 09:47:48;;;;;;;503.30;465.43;;;12.90;37.00;;;;;;4991959;28;20519;-72
2022/11/09 09:50:22;;;;;;;244.63;226.37;;;13.20;36.50;;;;;;5051003;28;20420;-73
2022/11/09 09:53:02;;;;;;;416.83;388.30;;;13.50;35.10;;;;;;5053097;28;20436;-73
2022/11/09 09:55:38;;;;;;;628.33;580.87;;;13.90;34.40;;;;;;5053106;28;20468;-71
2022/11/09 09:58:22;;;;;;;556.27;515.77;;;14.10;33.30;;;;;;5052212;28;20440;-73
2022/11/09 10:00:49;;;;;;;271.13;250.57;;;14.40;31.70;;;;;;5052075;28;20463;-73
2022/11/09 10:03:19;;;;;;;512.83;474.93;;;14.70;30.00;;;;;;5051640;28;20437;-73
2022/11/09 10:06:00;;;;;;;336.70;312.47;;;14.90;29.70;;;;;;5053050;28;20409;-73
2022/11/09 10:08:47;;;;;;;523.87;486.40;;;15.10;28.00;;;;;;5053146;28;20417;-73
2022/11/09 10:11:39;;;;;;;498.33;463.30;;;15.20;26.20;;;;;;5053014;28;20912;-73
2022/11/09 10:14:29;;;;;;;456.40;423.73;;;15.10;25.60;;;;;;5052574;28;21057;-72
2022/11/09 10:17:25;;;;;;;445.77;412.60;;;15.10;26.10;;;;;;5053012;28;20409;-72
2022/11/09 10:20:00;;;;;;;470.23;435.87;;;15.20;25.90;;;;;;5052993;28;20405;-73
2022/11/09 10:22:42;;;;;;;357.87;331.77;;;15.40;24.60;;;;;;5052284;28;20821;-73
2022/11/09 10:25:26;;;;;;;302.27;280.00;;;15.60;24.80;;;;;;5052875;28;20783;-73
2022/11/09 10:27:55;;;;;;;313.70;289.93;;;15.90;23.20;;;;;;5052287;28;20421;-73
2022/11/09 10:30:22;;;;;;;177.67;164.20;;;15.90;22.50;;;;;;5052640;28;20417;-72
2022/11/09 10:32:55;;;;;;;446.03;412.57;;;16.00;23.30;;;;;;5050999;28;20440;-73
2022/11/09 10:35:53;;;;;;;454.50;421.27;;;15.80;22.30;;;;;;5051295;28;20602;-74
2022/11/09 10:38:29;;;;;;;517.53;478.30;;;15.90;22.40;;;;;;5040263;28;20432;-73
2022/11/09 10:41:00;;;;;;;649.80;600.83;;;16.00;22.50;;;;;;5051330;28;20421;-74
2022/11/09 10:43:26;;;;;;;318.53;294.37;;;16.20;21.70;;;;;;5050825;28;20425;-73
2022/11/09 10:46:04;;;;;;;531.07;493.70;;;16.40;21.00;;;;;;5051056;28;20543;-71
2022/11/09 10:48:39;;;;;;;604.17;557.77;;;16.50;20.70;;;;;;5052362;28;20174;-71
2022/11/09 10:51:27;;;;;;;554.03;510.37;;;16.60;20.70;;;;;;5052229;28;20802;-71
2022/11/09 10:54:15;;;;;;;395.27;365.70;;;16.70;18.80;;;;;;5051837;28;20790;-71
2022/11/09 10:56:46;;;;;;;497.43;462.23;;;16.70;19.60;;;;;;5052291;28;20409;-71
2022/11/09 10:59:38;;;;;;;503.30;465.83;;;16.80;19.90;;;;;;5052170;28;20428;-72
2022/11/09 11:02:27;;;;;;;767.43;700.93;;;16.90;18.80;;;;;;5043815;28;20440;-71
2022/11/09 11:05:05;;;;;;;790.97;727.63;;;16.70;19.30;;;;;;5052074;28;20413;-71
2022/11/09 11:07:31;;;;;;;466.03;430.43;;;16.60;19.90;;;;;;5052004;28;20423;-71
2022/11/09 11:10:14;;;;;;;563.33;518.10;;;16.70;19.50;;;;;;5050721;28;20420;-71
2022/11/09 11:12:40;;;;;;;610.07;562.00;;;16.80;19.40;;;;;;5051559;28;20570;-71
2022/11/09 11:15:27;;;;;;;755.83;693.37;;;16.70;19.50;;;;;;5051729;28;20463;-71
2022/11/09 11:18:01;;;;;;;275.27;254.50;;;16.90;18.90;;;;;;5051884;28;20475;-70
2022/11/09 11:20:36;;;;;;;515.20;475.43;;;17.00;18.40;;;;;;5051814;28;20494;-71
2022/11/09 11:23:17;;;;;;;534.93;495.57;;;17.20;19.00;;;;;;5076258;22;21029;-72
2022/11/09 11:25:59;;;;;;;525.93;486.93;;;17.30;18.00;;;;;;5051766;28;20500;-73
2022/11/09 11:28:48;;;;;;;509.17;468.97;;;17.50;17.70;;;;;;5051641;28;20911;-73
2022/11/09 11:31:16;;;;;;;620.20;573.10;;;17.40;17.90;;;;;;5051539;28;20408;-72
2022/11/09 11:33:43;;;;;;;676.97;622.93;;;17.80;17.00;;;;;;5051182;28;20777;-73
2022/11/09 11:36:30;;;;;;;663.20;606.87;;;18.00;16.50;;;;;;5051511;28;20868;-74
2022/11/09 11:39:06;;;;;;;317.50;295.27;;;18.30;16.30;;;;;;5050971;28;20402;-72
2022/11/09 11:42:10;;;;;;;768.67;702.93;;;18.30;15.70;;;;;;5051615;28;20485;-72
2022/11/09 11:44:54;;;;;;;578.20;529.43;;;18.30;16.20;;;;;;5051763;28;20970;-72
2022/11/09 11:47:56;;;;;;;722.07;664.23;;;18.20;16.50;;;;;;5051765;28;20405;-73
2022/11/09 11:50:36;;;;;;;450.53;420.80;;;18.10;16.80;;;;;;5051813;28;20409;-72
2022/11/09 11:53:24;;;;;;;567.07;523.53;;;18.20;16.50;;;;;;5051079;28;20434;-73
2022/11/09 11:56:27;;;;;;;516.37;479.00;;;18.20;16.50;;;;;;5050026;28;20494;-73
2022/11/09 11:58:55;;;;;;;593.57;545.37;;;18.20;16.10;;;;;;5051447;28;20476;-75
2022/11/09 12:01:38;;;;;;;811.60;743.77;;;18.20;16.50;;;;;;5051457;28;20424;-73
2022/11/09 12:04:25;;;;;;;812.70;745.27;;;18.10;16.60;;;;;;5051526;28;20421;-73
2022/11/09 12:06:55;;;;;;;543.63;501.10;;;17.90;17.10;;;;;;5050285;28;20436;-72
2022/11/09 12:09:51;;;;;;;463.93;431.63;;;17.90;17.10;;;;;;5050429;28;20425;-74
2022/11/09 12:12:32;;;;;;;647.93;598.47;;;17.80;17.10;;;;;;5051303;28;20462;-72
2022/11/09 12:15:31;;;;;;;587.63;545.33;;;17.80;17.80;;;;;;5051343;28;20812;-72
2022/11/09 12:18:23;;;;;;;702.80;649.57;;;17.80;18.30;;;;;;5051474;28;20492;-72
2022/11/09 12:21:00;;;;;;;644.77;597.90;;;17.90;17.80;;;;;;5051320;28;20500;-73
2022/11/09 12:23:46;;;;;;;893.23;819.10;;;17.80;15.00;;;;;;5050906;28;20436;-73